Time,TemperatureF,DewpointF,PressureIn,WindDirection,WindDirectionDegrees,WindSpeedMPH,WindSpeedGustMPH,Humidity,HourlyPrecipIn,Conditions,Clouds,dailyrainin,SoftwareType,DateUTC
2013-01-21 00:20:00,42.8,27.3,30.10,ENE,68,0.0,0.0,54,0.00,,SKC,0.00,VWS V14.00,2013-01-21 05:20:00,
2013-01-21 00:40:00,41.9,27.4,30.10,ENE,68,0.0,0.0,56,0.00,,SKC,0.00,VWS V14.00,2013-01-21 05:40:00,
2013-01-21 01:00:00,41.4,28.1,30.10,ENE,68,0.0,0.0,59,0.00,,SKC,0.00,VWS V14.00,2013-01-21 06:00:00,
2013-01-21 01:20:00,40.8,28.4,30.10,ENE,68,0.0,0.0,61,0.00,,SKC,0.00,VWS V14.00,2013-01-21 06:20:00,
2013-01-21 01:40:00,40.5,28.5,30.10,ENE,68,0.0,0.0,62,0.00,,SKC,0.00,VWS V14.00,2013-01-21 06:40:00,
2013-01-21 02:20:00,39.6,28.4,30.10,ENE,68,0.0,0.0,64,0.00,,SKC,0.00,VWS V14.00,2013-01-21 07:20:00,
2013-01-21 02:40:00,39.4,28.2,30.10,ENE,68,0.0,0.0,64,0.00,,SKC,0.00,VWS V14.00,2013-01-21 07:40:00,
2013-01-21 03:00:00,38.7,27.5,30.10,ENE,68,0.0,0.0,64,0.00,,SKC,0.00,VWS V14.00,2013-01-21 08:00:00,
2013-01-21 03:20:00,38.3,27.6,30.10,ENE,68,0.0,0.0,65,0.00,,SKC,0.00,VWS V14.00,2013-01-21 08:20:00,
2013-01-21 03:40:00,37.9,26.9,30.09,ENE,68,0.0,0.0,64,0.00,,SKC,0.00,VWS V14.00,2013-01-21 08:40:00,
2013-01-21 04:20:00,37.0,26.0,30.08,ENE,68,0.0,0.0,64,0.00,,SKC,0.00,VWS V14.00,2013-01-21 09:20:00,
2013-01-21 04:40:00,36.9,26.2,30.07,ENE,68,0.0,0.0,65,0.00,,SKC,0.00,VWS V14.00,2013-01-21 09:40:00,
2013-01-21 05:00:00,36.7,26.8,30.07,ENE,68,0.0,0.0,67,0.00,,SKC,0.00,VWS V14.00,2013-01-21 10:00:00,
2013-01-21 05:20:00,36.5,27.0,30.07,ENE,68,0.0,0.0,68,0.00,,SKC,0.00,VWS V14.00,2013-01-21 10:20:00,
2013-01-21 05:40:00,36.5,27.3,30.07,ENE,68,0.0,0.0,69,0.00,,SKC,0.00,VWS V14.00,2013-01-21 10:40:00,
2013-01-21 06:20:00,36.0,27.5,30.07,ENE,68,0.0,0.0,71,0.00,,SKC,0.00,VWS V14.00,2013-01-21 11:20:00,
2013-01-21 06:40:00,35.8,27.3,30.08,ENE,68,0.0,0.0,71,0.00,,SKC,0.00,VWS V14.00,2013-01-21 11:40:00,
2013-01-21 07:00:00,35.8,27.6,30.08,ENE,68,0.0,0.0,72,0.00,,SKC,0.00,VWS V14.00,2013-01-21 12:00:00,
2013-01-21 07:20:00,35.8,27.6,30.09,ENE,68,0.0,0.0,72,0.00,,SKC,0.00,VWS V14.00,2013-01-21 12:20:00,
2013-01-21 08:00:00,35.6,27.8,30.10,ENE,68,0.0,0.0,73,0.00,,SKC,0.00,VWS V14.00,2013-01-21 13:00:00,
2013-01-21 08:20:00,35.2,27.8,30.11,WSW,248,0.0,0.0,74,0.00,,SKC,0.00,VWS V14.00,2013-01-21 13:20:00,
2013-01-21 08:40:00,35.4,28.3,30.12,WSW,248,0.0,0.0,75,0.00,,SKC,0.00,VWS V14.00,2013-01-21 13:40:00,
2013-01-21 09:20:00,36.7,30.5,30.14,East,90,0.0,0.0,78,0.00,,SKC,0.00,VWS V14.00,2013-01-21 14:20:00,
2013-01-21 09:40:00,38.1,31.9,30.14,ENE,68,0.0,0.0,78,0.00,,SKC,0.00,VWS V14.00,2013-01-21 14:40:00,
2013-01-21 10:00:00,39.6,30.2,30.15,WSW,248,0.0,0.0,69,0.00,,SKC,0.00,VWS V14.00,2013-01-21 15:00:00,
2013-01-21 10:20:00,40.1,27.8,30.16,SSE,158,0.0,0.0,61,0.00,,SKC,0.00,VWS V14.00,2013-01-21 15:20:00,
2013-01-21 10:40:00,41.2,26.2,30.17,SE,135,0.0,0.0,55,0.00,,SKC,0.00,VWS V14.00,2013-01-21 15:40:00,
2013-01-21 11:00:00,42.4,23.6,30.17,North,0,0.0,0.0,47,0.00,,SKC,0.00,VWS V14.00,2013-01-21 16:00:00,
2013-01-21 11:20:00,43.0,20.9,30.16,NE,45,0.0,4.9,41,0.00,,SKC,0.00,VWS V14.00,2013-01-21 16:20:00,
2013-01-21 11:40:00,43.7,19.8,30.16,North,0,0.0,0.0,38,0.00,,SKC,0.00,VWS V14.00,2013-01-21 16:40:00,
2013-01-21 12:00:00,44.6,17.3,30.15,NNE,22,0.0,1.3,33,0.00,,SKC,0.00,VWS V14.00,2013-01-21 17:00:00,
2013-01-21 12:20:00,45.9,15.4,30.15,North,0,0.0,0.0,29,0.00,,SKC,0.00,VWS V14.00,2013-01-21 17:20:00,
2013-01-21 13:00:00,48.4,8.0,30.13,NNW,338,0.0,5.1,19,0.00,,SKC,0.00,VWS V14.00,2013-01-21 18:00:00,
2013-01-21 13:20:00,50.0,18.2,30.12,NNW,338,0.0,0.0,28,0.00,,SKC,0.00,VWS V14.00,2013-01-21 18:20:00,
2013-01-21 13:40:00,51.3,18.4,30.12,South,180,0.0,0.0,27,0.00,,SKC,0.00,VWS V14.00,2013-01-21 18:40:00,
2013-01-21 14:00:00,51.6,17.9,30.11,WNW,292,0.0,2.5,26,0.00,,SKC,0.00,VWS V14.00,2013-01-21 19:00:00,
2013-01-21 14:20:00,51.4,15.9,30.12,NW,315,0.0,1.6,24,0.00,,SKC,0.00,VWS V14.00,2013-01-21 19:20:00,
2013-01-21 14:40:00,51.4,15.9,30.11,NNW,338,0.0,4.7,24,0.00,,SKC,0.00,VWS V14.00,2013-01-21 19:40:00,
2013-01-21 15:01:00,51.8,16.2,30.11,West,270,0.0,4.3,24,0.00,,SKC,0.00,VWS V14.00,2013-01-21 20:01:00,
2013-01-21 15:20:00,52.0,16.3,30.11,WNW,292,0.0,0.0,24,0.00,,SKC,0.00,VWS V14.00,2013-01-21 20:20:00,
2013-01-21 15:40:00,52.2,14.5,30.11,NNW,338,0.0,2.0,22,0.00,,SKC,0.00,VWS V14.00,2013-01-21 20:40:00,
2013-01-21 16:00:00,52.0,12.2,30.11,SE,135,0.0,0.0,20,0.00,,SKC,0.00,VWS V14.00,2013-01-21 21:00:00,
2013-01-21 16:20:00,52.5,12.6,30.12,WNW,292,2.0,2.0,20,0.00,,SKC,0.00,VWS V14.00,2013-01-21 21:20:00,
2013-01-21 16:40:00,51.4,10.6,30.12,SW,225,2.5,2.5,19,0.00,,SKC,0.00,VWS V14.00,2013-01-21 21:40:00,
2013-01-21 17:00:00,50.2,9.5,30.13,WNW,292,0.0,7.8,19,0.00,,SKC,0.00,VWS V14.00,2013-01-21 22:00:00,
2013-01-21 17:40:00,46.6,6.5,30.13,NW,315,0.0,2.7,19,0.00,,SKC,0.00,VWS V14.00,2013-01-21 22:40:00,
2013-01-21 18:00:00,44.2,4.6,30.13,ESE,112,0.0,7.2,19,0.00,,SKC,0.00,VWS V14.00,2013-01-21 23:00:00,
2013-01-21 18:20:00,42.4,3.1,30.15,North,0,0.0,0.0,19,0.00,,SKC,0.00,VWS V14.00,2013-01-21 23:20:00,
2013-01-21 18:41:00,41.5,2.4,30.15,SSE,158,0.0,0.0,19,0.00,,SKC,0.00,VWS V14.00,2013-01-21 23:41:00,
2013-01-21 19:00:00,40.6,1.6,30.16,NNW,338,0.0,0.0,19,0.00,,SKC,0.00,VWS V14.00,2013-01-22 00:00:00,
2013-01-21 19:20:00,39.6,0.7,30.15,SW,225,0.0,0.0,19,0.00,,SKC,0.00,VWS V14.00,2013-01-22 00:20:00,
2013-01-21 19:40:00,39.2,0.4,30.15,North,0,0.0,0.0,19,0.00,,SKC,0.00,VWS V14.00,2013-01-22 00:40:00,
2013-01-21 20:00:00,38.5,-0.2,30.16,NNW,338,0.0,0.0,19,0.00,,SKC,0.00,VWS V14.00,2013-01-22 01:00:00,
2013-01-21 20:20:00,37.9,-0.6,30.17,NNE,22,0.0,0.0,19,0.00,,SKC,0.00,VWS V14.00,2013-01-22 01:20:00,
2013-01-21 20:40:00,37.6,-0.9,30.17,North,0,0.0,0.0,19,0.00,,SKC,0.00,VWS V14.00,2013-01-22 01:40:00,
2013-01-21 21:00:00,36.9,-1.5,30.17,NNW,338,0.0,0.0,19,0.00,,SKC,0.00,VWS V14.00,2013-01-22 02:00:00,
2013-01-21 21:20:00,36.3,-2.0,30.18,NE,45,0.0,0.0,19,0.00,,SKC,0.00,VWS V14.00,2013-01-22 02:20:00,
2013-01-21 21:40:00,36.0,0.8,30.18,North,0,0.0,0.0,22,0.00,,SKC,0.00,VWS V14.00,2013-01-22 02:40:00,
2013-01-21 22:00:00,35.6,4.1,30.18,East,90,0.0,0.0,26,0.00,,SKC,0.00,VWS V14.00,2013-01-22 03:00:00,
2013-01-21 22:20:00,35.2,8.4,30.18,NE,45,0.0,0.0,32,0.00,,SKC,0.00,VWS V14.00,2013-01-22 03:20:00,
2013-01-21 22:40:00,34.7,6.4,30.20,WNW,292,0.0,0.0,30,0.00,,SKC,0.00,VWS V14.00,2013-01-22 03:40:00,
2013-01-21 23:20:00,33.4,0.5,30.20,NE,45,0.0,5.6,24,0.00,,SKC,0.00,VWS V14.00,2013-01-22 04:20:00,
2013-01-21 23:40:00,33.3,4.4,30.20,North,0,0.0,0.0,29,0.00,,SKC,0.00,VWS V14.00,2013-01-22 04:40:00,